sensor_id;sensor_type;location;lat;lon;timestamp;P1;durP1;ratioP1;P2;durP2;ratioP2
70153;SDS011;57519;51.494;-2.626;2023-05-07T00:00:32;18.43;;;8.30;;
70153;SDS011;57519;51.494;-2.626;2023-05-07T00:02:59;17.83;;;8.18;;
70153;SDS011;57519;51.494;-2.626;2023-05-07T00:05:25;18.30;;;7.75;;
70153;SDS011;57519;51.494;-2.626;2023-05-07T00:07:50;19.25;;;9.25;;
70153;SDS011;57519;51.494;-2.626;2023-05-07T00:10:17;18.77;;;7.63;;
70153;SDS011;57519;51.494;-2.626;2023-05-07T00:12:43;21.88;;;7.97;;
70153;SDS011;57519;51.494;-2.626;2023-05-07T00:15:09;17.15;;;8.48;;
70153;SDS011;57519;51.494;-2.626;2023-05-07T00:17:35;20.08;;;8.30;;
70153;SDS011;57519;51.494;-2.626;2023-05-07T00:20:01;21.60;;;8.80;;
70153;SDS011;57519;51.494;-2.626;2023-05-07T00:22:28;24.08;;;9.27;;
70153;SDS011;57519;51.494;-2.626;2023-05-07T00:24:55;19.45;;;8.60;;
70153;SDS011;57519;51.494;-2.626;2023-05-07T00:27:20;17.90;;;8.37;;
70153;SDS011;57519;51.494;-2.626;2023-05-07T00:29:46;16.08;;;7.72;;
70153;SDS011;57519;51.494;-2.626;2023-05-07T00:32:12;16.43;;;8.30;;
70153;SDS011;57519;51.494;-2.626;2023-05-07T00:34:37;17.42;;;8.25;;
70153;SDS011;57519;51.494;-2.626;2023-05-07T00:37:04;18.70;;;8.03;;
70153;SDS011;57519;51.494;-2.626;2023-05-07T00:39:30;17.75;;;8.18;;
70153;SDS011;57519;51.494;-2.626;2023-05-07T00:41:55;19.37;;;8.70;;
70153;SDS011;57519;51.494;-2.626;2023-05-07T00:44:20;21.77;;;8.93;;
70153;SDS011;57519;51.494;-2.626;2023-05-07T00:46:46;19.50;;;8.57;;
70153;SDS011;57519;51.494;-2.626;2023-05-07T00:49:14;15.65;;;8.25;;
70153;SDS011;57519;51.494;-2.626;2023-05-07T00:51:40;22.23;;;8.95;;
70153;SDS011;57519;51.494;-2.626;2023-05-07T00:54:06;18.95;;;9.10;;
70153;SDS011;57519;51.494;-2.626;2023-05-07T00:56:33;21.07;;;8.23;;
70153;SDS011;57519;51.494;-2.626;2023-05-07T00:59:00;18.58;;;8.75;;
70153;SDS011;57519;51.494;-2.626;2023-05-07T01:01:27;23.42;;;9.25;;
70153;SDS011;57519;51.494;-2.626;2023-05-07T01:03:52;15.20;;;8.47;;
70153;SDS011;57519;51.494;-2.626;2023-05-07T01:06:18;28.83;;;9.13;;
70153;SDS011;57519;51.494;-2.626;2023-05-07T01:08:46;19.48;;;9.10;;
70153;SDS011;57519;51.494;-2.626;2023-05-07T01:11:15;20.50;;;8.90;;
70153;SDS011;57519;51.494;-2.626;2023-05-07T01:13:45;23.80;;;9.00;;
70153;SDS011;57519;51.494;-2.626;2023-05-07T01:16:11;20.33;;;8.60;;
70153;SDS011;57519;51.494;-2.626;2023-05-07T01:18:37;22.50;;;9.20;;
70153;SDS011;57519;51.494;-2.626;2023-05-07T01:21:03;22.55;;;9.15;;
70153;SDS011;57519;51.494;-2.626;2023-05-07T01:23:29;30.30;;;11.50;;
70153;SDS011;57519;51.494;-2.626;2023-05-07T01:25:55;29.08;;;11.55;;
70153;SDS011;57519;51.494;-2.626;2023-05-07T01:28:21;23.67;;;12.23;;
70153;SDS011;57519;51.494;-2.626;2023-05-07T01:30:48;33.10;;;11.70;;
70153;SDS011;57519;51.494;-2.626;2023-05-07T01:33:18;36.05;;;12.95;;
70153;SDS011;57519;51.494;-2.626;2023-05-07T01:35:52;24.13;;;11.23;;
70153;SDS011;57519;51.494;-2.626;2023-05-07T01:38:18;24.25;;;10.13;;
70153;SDS011;57519;51.494;-2.626;2023-05-07T01:40:47;24.73;;;10.65;;
70153;SDS011;57519;51.494;-2.626;2023-05-07T01:43:12;24.70;;;11.67;;
70153;SDS011;57519;51.494;-2.626;2023-05-07T01:45:38;27.63;;;11.63;;
70153;SDS011;57519;51.494;-2.626;2023-05-07T01:48:04;26.08;;;10.27;;
70153;SDS011;57519;51.494;-2.626;2023-05-07T01:50:31;27.03;;;11.57;;
70153;SDS011;57519;51.494;-2.626;2023-05-07T01:52:57;29.02;;;12.95;;
70153;SDS011;57519;51.494;-2.626;2023-05-07T01:55:22;30.67;;;13.17;;
70153;SDS011;57519;51.494;-2.626;2023-05-07T01:57:48;29.67;;;13.20;;
70153;SDS011;57519;51.494;-2.626;2023-05-07T02:00:14;32.22;;;12.73;;
70153;SDS011;57519;51.494;-2.626;2023-05-07T02:02:40;25.83;;;11.87;;
70153;SDS011;57519;51.494;-2.626;2023-05-07T02:05:05;27.73;;;12.60;;
70153;SDS011;57519;51.494;-2.626;2023-05-07T02:07:31;33.50;;;13.55;;
70153;SDS011;57519;51.494;-2.626;2023-05-07T02:09:56;33.57;;;13.40;;
70153;SDS011;57519;51.494;-2.626;2023-05-07T02:12:22;35.17;;;14.10;;
70153;SDS011;57519;51.494;-2.626;2023-05-07T02:14:47;32.75;;;14.50;;
70153;SDS011;57519;51.494;-2.626;2023-05-07T02:17:13;38.77;;;13.33;;
70153;SDS011;57519;51.494;-2.626;2023-05-07T02:19:38;31.73;;;13.95;;
70153;SDS011;57519;51.494;-2.626;2023-05-07T02:22:04;35.20;;;13.77;;
70153;SDS011;57519;51.494;-2.626;2023-05-07T02:24:30;38.50;;;13.57;;
70153;SDS011;57519;51.494;-2.626;2023-05-07T02:26:55;36.67;;;14.30;;
70153;SDS011;57519;51.494;-2.626;2023-05-07T02:29:21;38.50;;;15.03;;
70153;SDS011;57519;51.494;-2.626;2023-05-07T02:31:46;36.10;;;14.20;;
70153;SDS011;57519;51.494;-2.626;2023-05-07T02:34:15;41.33;;;13.90;;
70153;SDS011;57519;51.494;-2.626;2023-05-07T02:36:41;40.22;;;15.82;;
70153;SDS011;57519;51.494;-2.626;2023-05-07T02:39:07;41.30;;;15.80;;
70153;SDS011;57519;51.494;-2.626;2023-05-07T02:41:32;46.33;;;16.83;;
70153;SDS011;57519;51.494;-2.626;2023-05-07T02:43:57;42.20;;;15.53;;
70153;SDS011;57519;51.494;-2.626;2023-05-07T02:46:23;41.67;;;15.77;;
70153;SDS011;57519;51.494;-2.626;2023-05-07T02:48:48;48.50;;;17.07;;
70153;SDS011;57519;51.494;-2.626;2023-05-07T02:51:13;43.17;;;16.60;;
70153;SDS011;57519;51.494;-2.626;2023-05-07T02:53:39;40.53;;;16.13;;
70153;SDS011;57519;51.494;-2.626;2023-05-07T02:56:05;46.20;;;15.03;;
70153;SDS011;57519;51.494;-2.626;2023-05-07T02:58:31;52.03;;;17.35;;
70153;SDS011;57519;51.494;-2.626;2023-05-07T03:00:56;53.30;;;17.13;;
70153;SDS011;57519;51.494;-2.626;2023-05-07T03:03:22;46.93;;;16.47;;
70153;SDS011;57519;51.494;-2.626;2023-05-07T03:05:47;53.20;;;17.55;;
70153;SDS011;57519;51.494;-2.626;2023-05-07T03:08:13;47.93;;;17.63;;
70153;SDS011;57519;51.494;-2.626;2023-05-07T03:10:38;55.30;;;17.00;;
70153;SDS011;57519;51.494;-2.626;2023-05-07T03:13:04;50.42;;;17.55;;
70153;SDS011;57519;51.494;-2.626;2023-05-07T03:15:30;36.60;;;14.60;;
70153;SDS011;57519;51.494;-2.626;2023-05-07T03:17:55;44.13;;;14.87;;
70153;SDS011;57519;51.494;-2.626;2023-05-07T03:20:21;47.80;;;15.60;;
70153;SDS011;57519;51.494;-2.626;2023-05-07T03:22:47;46.47;;;15.25;;
70153;SDS011;57519;51.494;-2.626;2023-05-07T03:25:12;43.00;;;15.00;;
70153;SDS011;57519;51.494;-2.626;2023-05-07T03:27:39;41.38;;;15.10;;
70153;SDS011;57519;51.494;-2.626;2023-05-07T03:30:04;49.97;;;17.40;;
70153;SDS011;57519;51.494;-2.626;2023-05-07T03:32:31;41.00;;;15.93;;
70153;SDS011;57519;51.494;-2.626;2023-05-07T03:34:56;35.80;;;14.00;;
70153;SDS011;57519;51.494;-2.626;2023-05-07T03:37:22;39.80;;;15.20;;
70153;SDS011;57519;51.494;-2.626;2023-05-07T03:39:47;39.03;;;13.83;;
70153;SDS011;57519;51.494;-2.626;2023-05-07T03:42:13;36.63;;;14.73;;
70153;SDS011;57519;51.494;-2.626;2023-05-07T03:44:38;35.93;;;14.77;;
70153;SDS011;57519;51.494;-2.626;2023-05-07T03:47:04;41.87;;;14.67;;
70153;SDS011;57519;51.494;-2.626;2023-05-07T03:49:29;40.13;;;14.87;;
70153;SDS011;57519;51.494;-2.626;2023-05-07T03:51:55;37.58;;;15.10;;
70153;SDS011;57519;51.494;-2.626;2023-05-07T03:54:20;36.47;;;14.83;;
70153;SDS011;57519;51.494;-2.626;2023-05-07T03:56:46;39.37;;;14.93;;
70153;SDS011;57519;51.494;-2.626;2023-05-07T03:59:12;44.05;;;15.35;;
70153;SDS011;57519;51.494;-2.626;2023-05-07T04:01:38;44.87;;;15.77;;
70153;SDS011;57519;51.494;-2.626;2023-05-07T04:04:03;44.53;;;16.15;;
70153;SDS011;57519;51.494;-2.626;2023-05-07T04:06:29;33.90;;;14.67;;
70153;SDS011;57519;51.494;-2.626;2023-05-07T04:08:55;35.40;;;14.85;;
70153;SDS011;57519;51.494;-2.626;2023-05-07T04:11:20;46.83;;;14.83;;
70153;SDS011;57519;51.494;-2.626;2023-05-07T04:13:46;42.22;;;16.23;;
70153;SDS011;57519;51.494;-2.626;2023-05-07T04:16:12;43.27;;;15.20;;
70153;SDS011;57519;51.494;-2.626;2023-05-07T04:18:37;34.05;;;14.30;;
70153;SDS011;57519;51.494;-2.626;2023-05-07T04:21:03;44.13;;;15.30;;
70153;SDS011;57519;51.494;-2.626;2023-05-07T04:23:29;40.33;;;15.85;;
70153;SDS011;57519;51.494;-2.626;2023-05-07T04:25:54;38.10;;;14.43;;
70153;SDS011;57519;51.494;-2.626;2023-05-07T04:28:20;37.83;;;14.17;;
70153;SDS011;57519;51.494;-2.626;2023-05-07T04:30:45;44.00;;;14.57;;
70153;SDS011;57519;51.494;-2.626;2023-05-07T04:33:11;38.23;;;16.13;;
70153;SDS011;57519;51.494;-2.626;2023-05-07T04:35:36;35.67;;;14.37;;
70153;SDS011;57519;51.494;-2.626;2023-05-07T04:38:02;36.63;;;13.63;;
70153;SDS011;57519;51.494;-2.626;2023-05-07T04:40:27;33.57;;;14.63;;
70153;SDS011;57519;51.494;-2.626;2023-05-07T04:42:53;41.97;;;13.63;;
70153;SDS011;57519;51.494;-2.626;2023-05-07T04:45:18;36.90;;;14.90;;
70153;SDS011;57519;51.494;-2.626;2023-05-07T04:47:44;35.60;;;13.77;;
70153;SDS011;57519;51.494;-2.626;2023-05-07T04:50:09;31.67;;;13.93;;
70153;SDS011;57519;51.494;-2.626;2023-05-07T04:52:35;35.28;;;14.00;;
70153;SDS011;57519;51.494;-2.626;2023-05-07T04:55:01;38.63;;;14.87;;
70153;SDS011;57519;51.494;-2.626;2023-05-07T04:57:27;34.55;;;14.82;;
70153;SDS011;57519;51.494;-2.626;2023-05-07T04:59:53;36.00;;;15.30;;
70153;SDS011;57519;51.494;-2.626;2023-05-07T05:02:18;36.45;;;15.70;;
70153;SDS011;57519;51.494;-2.626;2023-05-07T05:04:44;40.77;;;15.00;;
70153;SDS011;57519;51.494;-2.626;2023-05-07T05:07:09;34.53;;;14.77;;
70153;SDS011;57519;51.494;-2.626;2023-05-07T05:09:34;32.70;;;14.67;;
70153;SDS011;57519;51.494;-2.626;2023-05-07T05:12:00;38.57;;;14.97;;
70153;SDS011;57519;51.494;-2.626;2023-05-07T05:14:25;39.77;;;14.33;;
70153;SDS011;57519;51.494;-2.626;2023-05-07T05:16:51;31.70;;;13.43;;
70153;SDS011;57519;51.494;-2.626;2023-05-07T05:19:16;34.83;;;13.97;;
70153;SDS011;57519;51.494;-2.626;2023-05-07T05:21:42;36.17;;;13.83;;
70153;SDS011;57519;51.494;-2.626;2023-05-07T05:24:07;32.37;;;12.77;;
70153;SDS011;57519;51.494;-2.626;2023-05-07T05:26:33;29.30;;;12.93;;
70153;SDS011;57519;51.494;-2.626;2023-05-07T05:28:59;34.03;;;13.70;;
70153;SDS011;57519;51.494;-2.626;2023-05-07T05:31:24;25.93;;;11.97;;
70153;SDS011;57519;51.494;-2.626;2023-05-07T05:33:50;27.47;;;12.90;;
70153;SDS011;57519;51.494;-2.626;2023-05-07T05:36:16;29.50;;;12.67;;
70153;SDS011;57519;51.494;-2.626;2023-05-07T05:38:41;27.92;;;11.73;;
70153;SDS011;57519;51.494;-2.626;2023-05-07T05:41:07;24.43;;;11.80;;
70153;SDS011;57519;51.494;-2.626;2023-05-07T05:43:32;26.60;;;11.63;;
70153;SDS011;57519;51.494;-2.626;2023-05-07T05:45:57;27.83;;;11.20;;
70153;SDS011;57519;51.494;-2.626;2023-05-07T05:48:23;26.63;;;11.75;;
70153;SDS011;57519;51.494;-2.626;2023-05-07T05:50:49;26.43;;;11.07;;
70153;SDS011;57519;51.494;-2.626;2023-05-07T05:53:14;23.67;;;10.97;;
70153;SDS011;57519;51.494;-2.626;2023-05-07T05:55:41;26.42;;;10.45;;
70153;SDS011;57519;51.494;-2.626;2023-05-07T05:58:06;23.00;;;10.75;;
70153;SDS011;57519;51.494;-2.626;2023-05-07T06:00:32;23.37;;;10.20;;
70153;SDS011;57519;51.494;-2.626;2023-05-07T06:02:58;23.98;;;8.90;;
70153;SDS011;57519;51.494;-2.626;2023-05-07T06:05:23;22.73;;;9.93;;
70153;SDS011;57519;51.494;-2.626;2023-05-07T06:07:49;22.90;;;10.60;;
70153;SDS011;57519;51.494;-2.626;2023-05-07T06:10:14;21.47;;;9.63;;
70153;SDS011;57519;51.494;-2.626;2023-05-07T06:12:39;21.13;;;10.03;;
70153;SDS011;57519;51.494;-2.626;2023-05-07T06:15:05;20.67;;;9.50;;
70153;SDS011;57519;51.494;-2.626;2023-05-07T06:17:31;22.92;;;8.93;;
70153;SDS011;57519;51.494;-2.626;2023-05-07T06:19:57;24.97;;;9.03;;
70153;SDS011;57519;51.494;-2.626;2023-05-07T06:22:22;20.50;;;8.63;;
70153;SDS011;57519;51.494;-2.626;2023-05-07T06:24:47;24.13;;;9.13;;
70153;SDS011;57519;51.494;-2.626;2023-05-07T06:27:13;18.97;;;8.23;;
70153;SDS011;57519;51.494;-2.626;2023-05-07T06:29:38;18.30;;;9.27;;
70153;SDS011;57519;51.494;-2.626;2023-05-07T06:32:07;17.43;;;7.97;;
70153;SDS011;57519;51.494;-2.626;2023-05-07T06:34:37;17.63;;;8.38;;
70153;SDS011;57519;51.494;-2.626;2023-05-07T06:37:03;22.92;;;8.40;;
70153;SDS011;57519;51.494;-2.626;2023-05-07T06:39:28;21.40;;;7.63;;
70153;SDS011;57519;51.494;-2.626;2023-05-07T06:41:54;17.87;;;8.23;;
70153;SDS011;57519;51.494;-2.626;2023-05-07T06:44:19;18.58;;;8.27;;
70153;SDS011;57519;51.494;-2.626;2023-05-07T06:46:45;20.07;;;8.53;;
70153;SDS011;57519;51.494;-2.626;2023-05-07T06:49:12;11.73;;;7.60;;
70153;SDS011;57519;51.494;-2.626;2023-05-07T06:51:38;18.45;;;8.70;;
70153;SDS011;57519;51.494;-2.626;2023-05-07T06:54:03;20.40;;;7.53;;
70153;SDS011;57519;51.494;-2.626;2023-05-07T06:56:29;15.85;;;7.55;;
70153;SDS011;57519;51.494;-2.626;2023-05-07T06:58:55;15.88;;;6.97;;
70153;SDS011;57519;51.494;-2.626;2023-05-07T07:01:21;18.13;;;6.20;;
70153;SDS011;57519;51.494;-2.626;2023-05-07T07:03:47;15.35;;;6.82;;
70153;SDS011;57519;51.494;-2.626;2023-05-07T07:06:12;17.07;;;7.33;;
70153;SDS011;57519;51.494;-2.626;2023-05-07T07:08:38;19.63;;;7.50;;
70153;SDS011;57519;51.494;-2.626;2023-05-07T07:18:02;17.97;;;8.07;;
70153;SDS011;57519;51.494;-2.626;2023-05-07T07:20:27;21.45;;;8.48;;
70153;SDS011;57519;51.494;-2.626;2023-05-07T07:22:53;15.10;;;8.20;;
70153;SDS011;57519;51.494;-2.626;2023-05-07T07:25:18;12.30;;;6.83;;
70153;SDS011;57519;51.494;-2.626;2023-05-07T07:27:44;15.70;;;8.55;;
70153;SDS011;57519;51.494;-2.626;2023-05-07T07:30:10;17.77;;;8.33;;
70153;SDS011;57519;51.494;-2.626;2023-05-07T07:32:35;16.52;;;7.90;;
70153;SDS011;57519;51.494;-2.626;2023-05-07T07:35:01;17.47;;;7.77;;
70153;SDS011;57519;51.494;-2.626;2023-05-07T07:37:27;18.23;;;8.15;;
70153;SDS011;57519;51.494;-2.626;2023-05-07T07:39:52;13.90;;;7.80;;
70153;SDS011;57519;51.494;-2.626;2023-05-07T07:42:18;13.20;;;7.20;;
70153;SDS011;57519;51.494;-2.626;2023-05-07T07:44:43;12.38;;;6.22;;
70153;SDS011;57519;51.494;-2.626;2023-05-07T07:47:09;10.93;;;6.23;;
70153;SDS011;57519;51.494;-2.626;2023-05-07T07:49:35;13.02;;;5.97;;
70153;SDS011;57519;51.494;-2.626;2023-05-07T07:52:01;13.67;;;6.30;;
70153;SDS011;57519;51.494;-2.626;2023-05-07T07:54:26;14.70;;;5.57;;
70153;SDS011;57519;51.494;-2.626;2023-05-07T07:56:52;8.03;;;4.77;;
70153;SDS011;57519;51.494;-2.626;2023-05-07T07:59:17;9.93;;;5.00;;
70153;SDS011;57519;51.494;-2.626;2023-05-07T08:01:44;12.70;;;5.57;;
70153;SDS011;57519;51.494;-2.626;2023-05-07T08:04:09;10.65;;;5.03;;
70153;SDS011;57519;51.494;-2.626;2023-05-07T08:06:35;10.30;;;5.13;;
70153;SDS011;57519;51.494;-2.626;2023-05-07T08:09:01;9.77;;;4.40;;
70153;SDS011;57519;51.494;-2.626;2023-05-07T08:11:27;10.65;;;4.65;;
70153;SDS011;57519;51.494;-2.626;2023-05-07T08:13:53;9.20;;;4.00;;
70153;SDS011;57519;51.494;-2.626;2023-05-07T08:16:19;8.40;;;4.20;;
70153;SDS011;57519;51.494;-2.626;2023-05-07T08:18:45;10.82;;;4.28;;
70153;SDS011;57519;51.494;-2.626;2023-05-07T08:21:10;8.63;;;4.17;;
70153;SDS011;57519;51.494;-2.626;2023-05-07T08:23:36;7.67;;;3.73;;
70153;SDS011;57519;51.494;-2.626;2023-05-07T08:26:01;8.55;;;3.67;;
70153;SDS011;57519;51.494;-2.626;2023-05-07T08:28:27;12.53;;;5.03;;
70153;SDS011;57519;51.494;-2.626;2023-05-07T08:30:52;9.47;;;3.97;;
70153;SDS011;57519;51.494;-2.626;2023-05-07T08:33:18;9.33;;;4.37;;
70153;SDS011;57519;51.494;-2.626;2023-05-07T08:35:43;9.35;;;4.20;;
70153;SDS011;57519;51.494;-2.626;2023-05-07T08:38:12;9.50;;;3.47;;
70153;SDS011;57519;51.494;-2.626;2023-05-07T08:40:38;9.93;;;3.85;;
70153;SDS011;57519;51.494;-2.626;2023-05-07T08:43:06;12.33;;;3.87;;
70153;SDS011;57519;51.494;-2.626;2023-05-07T08:45:33;9.02;;;3.72;;
70153;SDS011;57519;51.494;-2.626;2023-05-07T08:48:00;10.48;;;4.47;;
70153;SDS011;57519;51.494;-2.626;2023-05-07T08:50:28;9.40;;;3.58;;
70153;SDS011;57519;51.494;-2.626;2023-05-07T08:52:54;8.30;;;3.70;;
70153;SDS011;57519;51.494;-2.626;2023-05-07T08:55:21;7.43;;;3.30;;
70153;SDS011;57519;51.494;-2.626;2023-05-07T08:57:47;7.82;;;3.70;;
70153;SDS011;57519;51.494;-2.626;2023-05-07T09:00:13;9.65;;;3.50;;
70153;SDS011;57519;51.494;-2.626;2023-05-07T09:02:39;8.73;;;3.67;;
70153;SDS011;57519;51.494;-2.626;2023-05-07T09:05:05;9.75;;;3.50;;
70153;SDS011;57519;51.494;-2.626;2023-05-07T09:07:31;7.20;;;4.20;;
70153;SDS011;57519;51.494;-2.626;2023-05-07T09:09:57;8.00;;;3.33;;
70153;SDS011;57519;51.494;-2.626;2023-05-07T09:12:22;7.80;;;3.50;;
70153;SDS011;57519;51.494;-2.626;2023-05-07T09:14:48;7.30;;;3.93;;
70153;SDS011;57519;51.494;-2.626;2023-05-07T09:17:17;8.13;;;3.40;;
70153;SDS011;57519;51.494;-2.626;2023-05-07T09:19:43;7.93;;;3.70;;
70153;SDS011;57519;51.494;-2.626;2023-05-07T09:22:13;6.30;;;3.20;;
70153;SDS011;57519;51.494;-2.626;2023-05-07T09:24:38;11.48;;;4.20;;
70153;SDS011;57519;51.494;-2.626;2023-05-07T09:27:04;8.83;;;3.87;;
70153;SDS011;57519;51.494;-2.626;2023-05-07T09:29:31;6.57;;;3.50;;
70153;SDS011;57519;51.494;-2.626;2023-05-07T09:32:24;8.30;;;3.55;;
70153;SDS011;57519;51.494;-2.626;2023-05-07T09:34:50;9.35;;;3.63;;
70153;SDS011;57519;51.494;-2.626;2023-05-07T09:37:18;11.43;;;3.40;;
70153;SDS011;57519;51.494;-2.626;2023-05-07T09:39:45;7.32;;;3.72;;
70153;SDS011;57519;51.494;-2.626;2023-05-07T09:42:12;10.68;;;4.10;;
70153;SDS011;57519;51.494;-2.626;2023-05-07T09:44:39;7.57;;;3.93;;
70153;SDS011;57519;51.494;-2.626;2023-05-07T09:47:05;6.07;;;3.70;;
70153;SDS011;57519;51.494;-2.626;2023-05-07T09:49:33;7.22;;;3.78;;
70153;SDS011;57519;51.494;-2.626;2023-05-07T09:52:01;7.32;;;3.97;;
70153;SDS011;57519;51.494;-2.626;2023-05-07T09:54:27;7.40;;;4.13;;
70153;SDS011;57519;51.494;-2.626;2023-05-07T09:56:59;9.18;;;3.80;;
70153;SDS011;57519;51.494;-2.626;2023-05-07T09:59:27;10.82;;;4.47;;
70153;SDS011;57519;51.494;-2.626;2023-05-07T10:01:52;8.10;;;3.43;;
70153;SDS011;57519;51.494;-2.626;2023-05-07T10:04:23;6.57;;;3.05;;
70153;SDS011;57519;51.494;-2.626;2023-05-07T10:06:50;8.00;;;4.05;;
70153;SDS011;57519;51.494;-2.626;2023-05-07T10:09:16;6.80;;;3.50;;
70153;SDS011;57519;51.494;-2.626;2023-05-07T10:11:41;7.73;;;3.70;;
70153;SDS011;57519;51.494;-2.626;2023-05-07T10:14:08;8.80;;;3.42;;
70153;SDS011;57519;51.494;-2.626;2023-05-07T10:16:35;6.95;;;4.13;;
70153;SDS011;57519;51.494;-2.626;2023-05-07T10:19:02;9.13;;;4.00;;
70153;SDS011;57519;51.494;-2.626;2023-05-07T10:21:29;7.22;;;3.92;;
70153;SDS011;57519;51.494;-2.626;2023-05-07T10:24:04;9.10;;;4.00;;
70153;SDS011;57519;51.494;-2.626;2023-05-07T10:26:45;10.23;;;3.70;;
70153;SDS011;57519;51.494;-2.626;2023-05-07T10:34:25;7.60;;;3.42;;
70153;SDS011;57519;51.494;-2.626;2023-05-07T10:36:54;8.95;;;3.97;;
70153;SDS011;57519;51.494;-2.626;2023-05-07T10:39:21;8.25;;;3.42;;
70153;SDS011;57519;51.494;-2.626;2023-05-07T10:41:47;8.15;;;3.92;;
70153;SDS011;57519;51.494;-2.626;2023-05-07T10:44:29;6.10;;;3.10;;
70153;SDS011;57519;51.494;-2.626;2023-05-07T10:47:07;9.80;;;3.88;;
70153;SDS011;57519;51.494;-2.626;2023-05-07T10:49:51;7.82;;;3.80;;
70153;SDS011;57519;51.494;-2.626;2023-05-07T10:52:20;9.02;;;3.67;;
70153;SDS011;57519;51.494;-2.626;2023-05-07T10:55:18;7.47;;;3.55;;
70153;SDS011;57519;51.494;-2.626;2023-05-07T10:57:40;8.33;;;3.60;;
70153;SDS011;57519;51.494;-2.626;2023-05-07T11:00:48;5.57;;;3.00;;
70153;SDS011;57519;51.494;-2.626;2023-05-07T11:08:57;7.22;;;3.50;;
70153;SDS011;57519;51.494;-2.626;2023-05-07T11:14:11;6.35;;;4.15;;
70153;SDS011;57519;51.494;-2.626;2023-05-07T11:16:38;9.05;;;4.32;;
70153;SDS011;57519;51.494;-2.626;2023-05-07T11:19:06;10.33;;;5.20;;
70153;SDS011;57519;51.494;-2.626;2023-05-07T11:23:58;9.70;;;4.97;;
70153;SDS011;57519;51.494;-2.626;2023-05-07T11:26:25;9.93;;;4.60;;
70153;SDS011;57519;51.494;-2.626;2023-05-07T11:28:51;7.47;;;4.63;;
70153;SDS011;57519;51.494;-2.626;2023-05-07T11:31:20;8.82;;;4.97;;
70153;SDS011;57519;51.494;-2.626;2023-05-07T11:33:48;10.88;;;4.97;;
70153;SDS011;57519;51.494;-2.626;2023-05-07T11:36:14;11.43;;;5.17;;
70153;SDS011;57519;51.494;-2.626;2023-05-07T11:38:40;8.45;;;4.43;;
70153;SDS011;57519;51.494;-2.626;2023-05-07T11:41:05;9.13;;;4.97;;
70153;SDS011;57519;51.494;-2.626;2023-05-07T11:43:32;10.27;;;5.00;;
70153;SDS011;57519;51.494;-2.626;2023-05-07T11:46:08;10.52;;;5.47;;
70153;SDS011;57519;51.494;-2.626;2023-05-07T11:48:35;9.63;;;4.90;;
70153;SDS011;57519;51.494;-2.626;2023-05-07T11:51:02;9.35;;;4.40;;
70153;SDS011;57519;51.494;-2.626;2023-05-07T11:53:38;8.32;;;4.40;;
70153;SDS011;57519;51.494;-2.626;2023-05-07T11:56:08;9.00;;;4.43;;
70153;SDS011;57519;51.494;-2.626;2023-05-07T11:58:36;8.40;;;4.82;;
70153;SDS011;57519;51.494;-2.626;2023-05-07T12:01:02;6.83;;;4.17;;
70153;SDS011;57519;51.494;-2.626;2023-05-07T12:03:27;7.43;;;4.20;;
70153;SDS011;57519;51.494;-2.626;2023-05-07T12:05:53;7.77;;;4.60;;
70153;SDS011;57519;51.494;-2.626;2023-05-07T12:08:19;9.70;;;4.95;;
70153;SDS011;57519;51.494;-2.626;2023-05-07T12:10:46;9.45;;;4.88;;
70153;SDS011;57519;51.494;-2.626;2023-05-07T12:13:23;11.10;;;5.20;;
70153;SDS011;57519;51.494;-2.626;2023-05-07T12:15:53;11.80;;;6.00;;
70153;SDS011;57519;51.494;-2.626;2023-05-07T12:18:20;12.35;;;6.65;;
70153;SDS011;57519;51.494;-2.626;2023-05-07T12:20:47;13.07;;;6.20;;
70153;SDS011;57519;51.494;-2.626;2023-05-07T12:23:13;14.60;;;7.78;;
70153;SDS011;57519;51.494;-2.626;2023-05-07T12:25:40;15.50;;;7.40;;
70153;SDS011;57519;51.494;-2.626;2023-05-07T12:28:12;14.75;;;7.35;;
70153;SDS011;57519;51.494;-2.626;2023-05-07T12:30:45;14.15;;;7.63;;
70153;SDS011;57519;51.494;-2.626;2023-05-07T12:33:11;13.80;;;7.45;;
70153;SDS011;57519;51.494;-2.626;2023-05-07T12:35:40;12.02;;;7.28;;
70153;SDS011;57519;51.494;-2.626;2023-05-07T12:38:13;18.20;;;7.27;;
70153;SDS011;57519;51.494;-2.626;2023-05-07T12:40:43;16.30;;;7.50;;
70153;SDS011;57519;51.494;-2.626;2023-05-07T12:43:29;10.30;;;5.80;;
70153;SDS011;57519;51.494;-2.626;2023-05-07T12:45:55;15.35;;;6.50;;
70153;SDS011;57519;51.494;-2.626;2023-05-07T12:48:22;11.15;;;5.45;;
70153;SDS011;57519;51.494;-2.626;2023-05-07T12:50:49;19.10;;;6.03;;
70153;SDS011;57519;51.494;-2.626;2023-05-07T12:53:15;11.25;;;5.25;;
70153;SDS011;57519;51.494;-2.626;2023-05-07T12:55:45;12.77;;;5.13;;
70153;SDS011;57519;51.494;-2.626;2023-05-07T12:58:16;8.10;;;4.55;;
70153;SDS011;57519;51.494;-2.626;2023-05-07T13:00:50;12.95;;;6.28;;
70153;SDS011;57519;51.494;-2.626;2023-05-07T13:03:23;12.63;;;5.77;;
70153;SDS011;57519;51.494;-2.626;2023-05-07T13:05:53;12.43;;;5.57;;
70153;SDS011;57519;51.494;-2.626;2023-05-07T13:08:27;11.77;;;5.65;;
70153;SDS011;57519;51.494;-2.626;2023-05-07T13:10:54;12.02;;;4.65;;
70153;SDS011;57519;51.494;-2.626;2023-05-07T13:13:20;9.70;;;4.73;;
70153;SDS011;57519;51.494;-2.626;2023-05-07T13:15:46;11.85;;;4.85;;
70153;SDS011;57519;51.494;-2.626;2023-05-07T13:18:12;8.57;;;4.25;;
70153;SDS011;57519;51.494;-2.626;2023-05-07T13:20:38;7.93;;;4.10;;
70153;SDS011;57519;51.494;-2.626;2023-05-07T13:23:03;8.70;;;3.97;;
70153;SDS011;57519;51.494;-2.626;2023-05-07T13:25:29;8.30;;;3.67;;
70153;SDS011;57519;51.494;-2.626;2023-05-07T13:27:56;9.73;;;4.15;;
70153;SDS011;57519;51.494;-2.626;2023-05-07T13:30:22;11.27;;;3.97;;
70153;SDS011;57519;51.494;-2.626;2023-05-07T13:32:47;14.30;;;4.33;;
70153;SDS011;57519;51.494;-2.626;2023-05-07T13:35:13;9.35;;;4.03;;
70153;SDS011;57519;51.494;-2.626;2023-05-07T13:37:39;11.13;;;3.60;;
70153;SDS011;57519;51.494;-2.626;2023-05-07T13:40:05;8.67;;;3.00;;
70153;SDS011;57519;51.494;-2.626;2023-05-07T13:42:31;7.50;;;3.30;;
70153;SDS011;57519;51.494;-2.626;2023-05-07T13:44:56;7.03;;;3.23;;
70153;SDS011;57519;51.494;-2.626;2023-05-07T13:47:22;6.50;;;3.47;;
70153;SDS011;57519;51.494;-2.626;2023-05-07T13:49:48;8.02;;;3.40;;
70153;SDS011;57519;51.494;-2.626;2023-05-07T13:52:16;8.10;;;3.40;;
70153;SDS011;57519;51.494;-2.626;2023-05-07T13:54:42;8.07;;;3.00;;
70153;SDS011;57519;51.494;-2.626;2023-05-07T13:57:08;10.95;;;3.72;;
70153;SDS011;57519;51.494;-2.626;2023-05-07T13:59:33;8.80;;;3.10;;
70153;SDS011;57519;51.494;-2.626;2023-05-07T14:01:59;18.83;;;5.60;;
70153;SDS011;57519;51.494;-2.626;2023-05-07T14:04:27;7.05;;;3.05;;
70153;SDS011;57519;51.494;-2.626;2023-05-07T14:06:53;8.73;;;3.33;;
70153;SDS011;57519;51.494;-2.626;2023-05-07T14:11:54;12.23;;;3.45;;
70153;SDS011;57519;51.494;-2.626;2023-05-07T14:14:19;10.00;;;3.80;;
70153;SDS011;57519;51.494;-2.626;2023-05-07T14:16:45;10.25;;;3.50;;
70153;SDS011;57519;51.494;-2.626;2023-05-07T14:19:13;5.83;;;3.07;;
70153;SDS011;57519;51.494;-2.626;2023-05-07T14:21:39;10.30;;;3.65;;
70153;SDS011;57519;51.494;-2.626;2023-05-07T14:24:06;7.27;;;3.40;;
70153;SDS011;57519;51.494;-2.626;2023-05-07T14:26:33;7.57;;;3.13;;
70153;SDS011;57519;51.494;-2.626;2023-05-07T14:28:58;6.97;;;3.20;;
70153;SDS011;57519;51.494;-2.626;2023-05-07T14:31:26;7.82;;;3.13;;
70153;SDS011;57519;51.494;-2.626;2023-05-07T14:33:52;11.93;;;3.10;;
70153;SDS011;57519;51.494;-2.626;2023-05-07T14:36:18;6.75;;;2.60;;
70153;SDS011;57519;51.494;-2.626;2023-05-07T14:38:46;7.15;;;3.58;;
70153;SDS011;57519;51.494;-2.626;2023-05-07T14:41:11;9.95;;;3.50;;
70153;SDS011;57519;51.494;-2.626;2023-05-07T14:43:37;7.57;;;2.90;;